^^

Meteo Aereoporti Centro-Italia

 

 
LIRZ - Perugia S.Egidio (208 m.)
Dati ricevuti: 21/05/2019 06:50
Pioggia debole, Molto Nuvoloso
Pioggia debole, Molto Nuvoloso
 Vento da S
Vento: S 6 km/h
TEMPERATURA: 13°C
P.to di Rugiada: 11°C
Umidità: 88%
Pressione: 1011 hPa
Condizioni generali: Pioggia debole
Nuvole: Molto nuvoloso
Visibilità: 10 km
Dettagli Nuvole: Qualche nuvola 488 m
Molto nuvoloso 1097 m
2019/05/21 04:50 LIRZ 210450Z AUTO 19003KT 160V220 9999 -RA FEW016/// BKN036/// 13/11 Q1011
 
LIPY - Ancona Falconara (12 m.)
Dati ricevuti: 21/05/2019 06:50
Qualche nuvola
Qualche nuvola
 Vento da direzione variabile
Vento: direzione variabile 4 km/h
TEMPERATURA: 13°C
P.to di Rugiada: 11°C
Umidità: 88%
Pressione: 1009 hPa
Nuvole: Qualche nuvola
Visibilità: 10 km
Dettagli Nuvole: Qualche nuvola 1829 m
2019/05/21 04:50 LIPY 210450Z VRB02KT 9999 FEW060 13/11 Q1009
 
LIPR - Rimini Miramare (12 m.)
Dati ricevuti: 21/05/2019 07:20
Pioggia debole, Molto Nuvoloso
Pioggia debole, Molto Nuvoloso
 Vento da SSE
Vento: SSE 6 km/h
TEMPERATURA: 15°C
P.to di Rugiada: 11°C
Umidità: 77%
Pressione: 1008 hPa
Condizioni generali: Pioggia debole
Nuvole: Molto nuvoloso
Visibilità: 10 km
Dettagli Nuvole: Molto nuvoloso 1829 m
2019/05/21 05:20 LIPR 210520Z 15003KT 9999 -RA BKN060 15/11 Q1008
 
LIRF - Roma Fiumicino (2 m.)
Dati ricevuti: 21/05/2019 07:20
Molto nuvoloso
Molto nuvoloso
 Vento da WSW
Vento: WSW 17 km/h
TEMPERATURA: 16°C
P.to di Rugiada: 14°C
Umidità: 88%
Pressione: 1011 hPa
Nuvole: Molto nuvoloso
Visibilità: 8 km
Dettagli Nuvole: Qualche nuvola 366 m
Molto nuvoloso 914 m
2019/05/21 05:20 LIRF 210520Z 24009KT 8000 FEW012 BKN030 16/14 Q1011 TEMPO RA
 
LIRA - Roma Ciampino (129 m.)
Dati ricevuti: 21/05/2019 07:20
Molto nuvoloso
Molto nuvoloso
 Vento da S
Vento: S 9 km/h
TEMPERATURA: 14°C
P.to di Rugiada: 13°C
Umidità: 94%
Pressione: 1012 hPa
Nuvole: Molto nuvoloso
Visibilità: 7 km
Dettagli Nuvole: Qualche nuvola 213 m
Molto nuvoloso 610 m
2019/05/21 05:20 LIRA 210520Z 18005KT 7000 FEW007 BKN020 14/13 Q1012
 
LIRU - Roma Urbe (17 m.)
Dati ricevuti: 20/05/2019 19:50
Dati non aggiornati
Molto nuvoloso
Molto nuvoloso
 Vento da SSW
Vento: SSW 11 km/h
TEMPERATURA: 16°C
P.to di Rugiada: 11°C
Umidità: 72%
Pressione: 1011 hPa
Nuvole: Molto nuvoloso
Visibilità: 10 km
Dettagli Nuvole: Poco nuvoloso 610 m
Molto nuvoloso 1372 m
2019/05/20 17:50 LIRU 201750Z 21006KT 9999 SCT020 BKN045 16/11 Q1011
 
LIVF - Frontone (570 m.)
Dati ricevuti: 21/05/2019 05:55
Dati non aggiornati
Molto nuvoloso
Molto nuvoloso
 Vento da NW
Vento: NW 11 km/h
TEMPERATURA: 11°C
P.to di Rugiada: 8°C
Umidità: 82%
Pressione: 1008 hPa
Nuvole: Molto nuvoloso
Visibilità: 10 km
Dettagli Nuvole: Molto nuvoloso 671 m
2019/05/21 03:55 LIVF 210355Z 31006KT 9999 BKN022 11/08 Q1008
 
LIRQ - Firenze Peretola (40 m.)
Dati ricevuti: 21/05/2019 07:20
Leggera pioggerella, Molto Nuvoloso
Leggera pioggerella, Molto Nuvoloso
 Vento da E
Vento: E 6 km/h
TEMPERATURA: 14°C
P.to di Rugiada: 13°C
Umidità: 94%
Pressione: 1010 hPa
Condizioni generali: Leggera pioggerella
Nuvole: Molto nuvoloso
Visibilità: 10 km
Dettagli Nuvole: Poco nuvoloso 457 m
Molto nuvoloso 762 m
2019/05/21 05:20 LIRQ 210520Z 10003KT 9999 -DZ SCT015 BKN025 14/13 Q1010
 
LIBP - Pescara (10 m.)
Dati ricevuti: 21/05/2019 06:50
Qualche nuvola
Qualche nuvola
 Vento da SW
Vento: SW 4 km/h
TEMPERATURA: 16°C
P.to di Rugiada: 8°C
Umidità: 59%
Pressione: 1010 hPa
Nuvole: Qualche nuvola
Visibilità: 10 km
Dettagli Nuvole: Qualche nuvola 2560 m
2019/05/21 04:50 LIBP 210450Z AUTO 23002KT 9999 FEW084/// 16/08 Q1010
 
LIRV - Viterbo (300 m.)
Dati ricevuti: 21/05/2019 07:28
Foschia, Molto Nuvoloso
Foschia, Molto Nuvoloso
 Vento da direzione variabile
Vento: direzione variabile 0 km/h
TEMPERATURA: 12°C
P.to di Rugiada: 9°C
Umidità: 82%
Pressione: 1010 hPa
Condizioni generali: Foschia
Nuvole: Molto nuvoloso
Visibilità: 2 km
Dettagli Nuvole: Poco nuvoloso 30 m
Molto nuvoloso 914 m
2019/05/21 05:28 LIRV 210528Z /////KT 2000 BR SCT001 BKN030 12/09 Q1010
 
LIQN - Rieti (389 m.)
Dati ricevuti: 20/05/2019 19:50
Dati non aggiornati
Molto nuvoloso
Molto nuvoloso
 Vento da direzione variabile
Vento: direzione variabile 6 km/h
TEMPERATURA: 14°C
P.to di Rugiada: 8°C
Umidità: 67%
Pressione: 1010 hPa
Nuvole: Molto nuvoloso
Visibilità: 10 km
Dettagli Nuvole: Molto nuvoloso 914 m
2019/05/20 17:50 LIQN 201750Z VRB03KT 9999 BKN030 14/08 Q1010
 
LIRG - Guidonia -RM- (88 m.)
Dati ricevuti: 21/05/2019 06:55
Molto nuvoloso
Molto nuvoloso
 Vento da SSE
Vento: SSE 7 km/h
TEMPERATURA: 13°C
P.to di Rugiada: 13°C
Umidità: 100%
Pressione: 1012 hPa
Nuvole: Molto nuvoloso
Visibilità: 10 km
Dettagli Nuvole: Poco nuvoloso 823 m
Molto nuvoloso 914 m
2019/05/21 04:55 LIRG 210455Z 16004KT 9999 SCT027 BKN030 13/13 Q1012
 
LIRK - Terminillo -RI-(1874 m.)
Dati ricevuti: 21/05/2019 06:55

 Vento da direzione variabile
Vento: direzione variabile 13 km/h
TEMPERATURA: 3°C
Raffreddamento da Vento: -1°C
P.to di Rugiada: 3°C
Umidità: 100%
Pressione: 1013 hPa
2019/05/21 04:55 LIRK 210455Z AUTO VRB07KT //// 03/03 Q1013
 
LIPK - Forlì (27 m.)
Dati ricevuti: 20/05/2019 17:50
Dati non aggiornati
Poco nuvoloso
Poco nuvoloso
 Vento da SW
Vento: SW 19 km/h
TEMPERATURA: 20°C
P.to di Rugiada: 8°C
Umidità: 46%
Pressione: 1006 hPa
Nuvole: Poco nuvoloso
Visibilità: 10 km
Dettagli Nuvole: Qualche nuvola 610 m
Poco nuvoloso 914 m
2019/05/20 15:50 LIPK 201550Z 22010KT 9999 FEW020CB SCT030 20/08 Q1006
 
LIRS - Grosseto (5 m.)
Dati ricevuti: 21/05/2019 06:55
Poco nuvoloso
Poco nuvoloso
 Vento da N
Vento: N 4 km/h
TEMPERATURA: 14°C
P.to di Rugiada: 13°C
Umidità: 94%
Pressione: 1010 hPa
Nuvole: Poco nuvoloso
Visibilità: 10 km
Dettagli Nuvole: Qualche nuvola 457 m
Poco nuvoloso 1219 m
2019/05/21 04:55 LIRS 210455Z 35002KT 9999 FEW015 SCT040 14/13 Q1010 RERA
 
LIRP - Pisa S.Giusto (2 m.)
Dati ricevuti: 21/05/2019 07:15
Molto nuvoloso
Molto nuvoloso
 Vento da E
Vento: E 4 km/h
TEMPERATURA: 13°C
P.to di Rugiada: 13°C
Umidità: 100%
Pressione: 1010 hPa
Nuvole: Molto nuvoloso
Visibilità: 10 km
Dettagli Nuvole: Poco nuvoloso 610 m
Molto nuvoloso 914 m
2019/05/21 05:15 LIRP 210515Z 09002KT 9999 SCT020 BKN030 13/13 Q1010 NOSIG